Time;durP1;ratioP1;P1;durP2;ratioP2;P2;SDS_P1;SDS_P2;PMS_P1;PMS_P2;Temp;Humidity;BMP_temperature;BMP_pressure;BME280_temperature;BME280_humidity;BME280_pressure;Samples;Min_cycle;Max_cycle;Signal;HPM_P1;HPM_P2
2023/09/02 00:00:48;;;;;;;10.73;9.63;;;15.80;99.90;;;;;;5069495;28;20239;-67
2023/09/02 00:03:15;;;;;;;9.53;8.57;;;15.80;99.90;;;;;;5087444;28;20289;-67
2023/09/02 00:05:43;;;;;;;9.50;8.70;;;15.70;99.90;;;;;;5087427;28;20260;-67
2023/09/02 00:08:10;;;;;;;8.90;8.20;;;15.70;99.90;;;;;;5088171;28;20207;-67
2023/09/02 00:10:37;;;;;;;9.43;8.43;;;15.70;99.90;;;;;;5079141;28;20670;-68
2023/09/02 00:13:04;;;;;;;9.77;8.47;;;15.70;99.90;;;;;;5067902;28;20219;-67
2023/09/02 00:15:33;;;;;;;9.70;8.90;;;15.70;99.90;;;;;;5068255;28;20578;-67
2023/09/02 00:18:00;;;;;;;9.27;8.37;;;15.70;99.90;;;;;;5095709;28;20666;-67
2023/09/02 00:20:27;;;;;;;11.70;9.00;;;15.70;99.90;;;;;;5088132;28;20289;-67
2023/09/02 00:22:54;;;;;;;9.37;8.47;;;15.60;99.90;;;;;;5087852;28;20211;-67
2023/09/02 00:25:22;;;;;;;9.53;8.73;;;15.60;99.90;;;;;;5071776;28;20211;-67
2023/09/02 00:27:49;;;;;;;9.83;8.80;;;15.60;99.90;;;;;;5067376;28;20326;-66
2023/09/02 00:30:16;;;;;;;9.23;8.43;;;15.60;99.90;;;;;;5066959;28;20666;-66
2023/09/02 00:32:45;;;;;;;8.63;7.67;;;15.50;99.90;;;;;;5077109;28;20581;-66
2023/09/02 00:35:12;;;;;;;8.53;7.80;;;15.60;99.90;;;;;;5087505;28;20290;-66
2023/09/02 00:37:40;;;;;;;8.33;7.53;;;15.60;99.90;;;;;;5086686;28;20237;-66
2023/09/02 00:40:13;;;;;;;8.40;7.60;;;15.50;99.90;;;;;;5102933;28;20692;-66
2023/09/02 00:42:41;;;;;;;9.33;8.43;;;15.50;99.90;;;;;;5096726;28;20564;-67
2023/09/02 00:45:09;;;;;;;8.50;7.70;;;15.50;99.90;;;;;;5087011;28;20210;-67
2023/09/02 00:47:36;;;;;;;8.80;8.00;;;15.40;99.90;;;;;;5076199;28;20219;-67
2023/09/02 00:50:05;;;;;;;8.87;8.07;;;15.40;99.90;;;;;;5066217;28;20215;-67
2023/09/02 00:52:34;;;;;;;8.37;7.67;;;15.40;99.90;;;;;;5075169;28;20317;-66
2023/09/02 00:55:01;;;;;;;7.77;7.13;;;15.30;99.90;;;;;;5082899;28;20267;-66
2023/09/02 00:57:29;;;;;;;8.90;8.00;;;15.30;99.90;;;;;;5067503;28;20308;-66
2023/09/02 00:59:57;;;;;;;11.63;8.00;;;15.30;99.90;;;;;;5066135;28;20242;-67
2023/09/02 01:02:24;;;;;;;8.37;7.47;;;15.30;99.90;;;;;;5066183;28;20235;-67
2023/09/02 01:04:52;;;;;;;8.37;7.63;;;15.30;99.90;;;;;;5077480;28;20981;-67
2023/09/02 01:07:21;;;;;;;7.87;7.17;;;15.30;99.90;;;;;;5081868;28;20335;-67
2023/09/02 01:09:49;;;;;;;8.77;7.97;;;15.30;99.90;;;;;;5072433;28;20211;-67
2023/09/02 01:12:16;;;;;;;10.33;7.47;;;15.30;99.90;;;;;;5066072;28;20239;-67
2023/09/02 01:14:43;;;;;;;8.50;7.63;;;15.30;99.90;;;;;;5065582;28;20335;-66
2023/09/02 01:17:12;;;;;;;8.00;7.30;;;15.30;99.90;;;;;;5080723;28;20230;-67
2023/09/02 01:19:43;;;;;;;8.53;7.80;;;15.20;99.90;;;;;;5106510;28;20252;-66
2023/09/02 01:22:33;;;;;;;8.27;7.57;;;15.20;99.90;;;;;;5068596;28;20231;-66
2023/09/02 01:25:23;;;;;;;7.97;7.27;;;15.20;99.90;;;;;;5085786;28;20291;-66
2023/09/02 01:27:56;;;;;;;7.53;6.83;;;15.20;99.90;;;;;;5085784;28;20206;-66
2023/09/02 01:30:27;;;;;;;7.93;7.33;;;15.20;99.90;;;;;;5081644;28;20198;-67
2023/09/02 01:32:56;;;;;;;7.77;7.07;;;15.20;99.90;;;;;;5067220;28;20909;-66
2023/09/02 01:35:28;;;;;;;8.47;7.77;;;15.10;99.90;;;;;;5080012;28;20213;-66
2023/09/02 01:37:57;;;;;;;8.40;7.43;;;15.10;99.90;;;;;;5105966;28;20813;-66
2023/09/02 01:40:26;;;;;;;8.00;7.30;;;15.10;99.90;;;;;;5105982;28;20206;-66
2023/09/02 01:42:58;;;;;;;8.83;7.93;;;15.10;99.90;;;;;;5106039;28;20213;-66
2023/09/02 01:45:27;;;;;;;10.87;8.33;;;15.10;99.90;;;;;;5065733;28;20199;-66
2023/09/02 01:47:55;;;;;;;8.97;8.07;;;15.10;99.90;;;;;;5092477;28;20214;-66
2023/09/02 01:50:25;;;;;;;8.10;7.47;;;15.10;99.90;;;;;;5106072;28;20227;-66
2023/09/02 01:52:54;;;;;;;8.40;7.70;;;15.00;99.90;;;;;;5088422;28;20219;-66
2023/09/02 01:55:21;;;;;;;7.90;7.30;;;15.00;99.90;;;;;;5083936;28;20207;-66
2023/09/02 01:57:49;;;;;;;8.90;8.00;;;15.00;99.90;;;;;;5073625;28;20280;-66
2023/09/02 02:00:18;;;;;;;8.40;7.70;;;15.00;99.90;;;;;;5085345;28;20238;-67
2023/09/02 02:02:49;;;;;;;8.27;7.47;;;14.80;99.90;;;;;;5085272;28;20225;-66
2023/09/02 02:05:18;;;;;;;7.93;7.30;;;14.90;99.90;;;;;;5073984;28;20577;-66
2023/09/02 02:08:00;;;;;;;8.43;7.80;;;14.90;99.90;;;;;;5065127;28;20294;-66
2023/09/02 02:10:30;;;;;;;8.63;7.83;;;14.90;99.90;;;;;;5065116;28;20206;-66
2023/09/02 02:13:01;;;;;;;8.63;7.90;;;14.80;99.90;;;;;;5065126;28;20290;-66
2023/09/02 02:15:30;;;;;;;8.60;7.90;;;14.80;99.90;;;;;;5069707;28;20279;-66
2023/09/02 02:17:57;;;;;;;9.30;8.40;;;14.80;99.90;;;;;;5096370;28;20230;-66
2023/09/02 02:20:27;;;;;;;9.23;8.40;;;14.80;99.90;;;;;;5087013;28;20203;-66
2023/09/02 02:22:54;;;;;;;8.80;8.00;;;14.80;99.90;;;;;;5064801;28;20218;-67
2023/09/02 02:25:21;;;;;;;9.23;8.40;;;14.70;99.90;;;;;;5064835;28;20324;-66
2023/09/02 02:27:48;;;;;;;9.03;8.13;;;14.70;99.90;;;;;;5064571;28;20252;-67
2023/09/02 02:30:15;;;;;;;8.80;7.97;;;14.70;99.90;;;;;;5064705;28;20203;-67
2023/09/02 02:32:44;;;;;;;8.80;8.07;;;14.70;99.90;;;;;;5073890;28;20213;-66
2023/09/02 02:35:14;;;;;;;13.10;8.60;;;14.70;99.90;;;;;;5084837;28;20268;-66
2023/09/02 02:37:42;;;;;;;8.27;7.47;;;14.70;99.90;;;;;;5084544;28;20309;-66
2023/09/02 02:40:10;;;;;;;9.53;8.47;;;14.70;99.90;;;;;;5084711;28;20973;-65
2023/09/02 02:42:37;;;;;;;8.83;8.03;;;14.70;99.90;;;;;;5084803;28;20299;-65
2023/09/02 02:45:05;;;;;;;9.03;8.20;;;14.70;99.90;;;;;;5084354;28;20210;-65
2023/09/02 02:47:32;;;;;;;8.87;8.10;;;14.70;99.90;;;;;;5091370;28;20206;-66
2023/09/02 02:50:01;;;;;;;8.43;7.63;;;14.60;99.90;;;;;;5084886;28;20202;-66
2023/09/02 02:52:29;;;;;;;8.57;7.17;;;14.60;99.90;;;;;;5084800;28;20268;-66
2023/09/02 02:54:56;;;;;;;8.20;7.50;;;14.60;99.90;;;;;;5084835;28;20210;-66
2023/09/02 02:57:23;;;;;;;8.60;7.80;;;14.50;99.90;;;;;;5065849;28;20233;-66
2023/09/02 02:59:52;;;;;;;8.97;8.07;;;14.50;99.90;;;;;;5064445;28;20231;-66
2023/09/02 03:02:19;;;;;;;8.97;8.13;;;14.50;99.90;;;;;;5070092;28;20530;-67
2023/09/02 03:04:48;;;;;;;9.27;8.47;;;14.50;99.90;;;;;;5064371;28;20204;-67
2023/09/02 03:07:16;;;;;;;8.87;8.03;;;14.50;99.90;;;;;;5064263;28;20227;-67
2023/09/02 03:09:43;;;;;;;8.53;7.73;;;14.50;99.90;;;;;;5064432;28;20295;-67
2023/09/02 03:12:11;;;;;;;8.47;7.77;;;14.50;99.90;;;;;;5064678;28;20294;-66
2023/09/02 03:14:38;;;;;;;8.43;7.63;;;14.50;99.90;;;;;;5063964;28;20223;-66
2023/09/02 03:17:05;;;;;;;8.60;7.80;;;14.40;99.90;;;;;;5077962;28;20514;-66
2023/09/02 03:19:32;;;;;;;8.80;7.90;;;14.40;99.90;;;;;;5076113;28;20568;-66
2023/09/02 03:21:59;;;;;;;8.33;7.47;;;14.40;99.90;;;;;;5082973;28;20207;-66
2023/09/02 03:24:28;;;;;;;8.23;7.43;;;14.40;99.90;;;;;;5084756;28;20255;-66
2023/09/02 03:26:55;;;;;;;9.13;8.33;;;14.40;99.90;;;;;;5084606;28;20211;-66
2023/09/02 03:29:27;;;;;;;9.17;8.07;;;14.30;99.90;;;;;;5065261;28;20555;-66
2023/09/02 03:31:56;;;;;;;8.37;7.63;;;14.30;99.90;;;;;;5064164;28;20602;-66
2023/09/02 03:34:24;;;;;;;8.33;7.63;;;14.40;99.90;;;;;;5083298;28;20202;-66
2023/09/02 03:36:51;;;;;;;7.63;7.03;;;14.30;99.90;;;;;;5084391;28;20578;-66
2023/09/02 03:39:18;;;;;;;8.57;7.80;;;14.30;99.90;;;;;;5085153;28;20241;-66
2023/09/02 03:41:47;;;;;;;8.03;7.30;;;14.30;99.90;;;;;;5087629;28;20261;-66
2023/09/02 03:44:14;;;;;;;8.27;7.47;;;14.30;99.90;;;;;;5084544;28;20212;-66
2023/09/02 03:46:42;;;;;;;8.83;8.10;;;14.20;99.90;;;;;;5067665;28;20651;-66
2023/09/02 03:49:09;;;;;;;8.97;7.70;;;14.20;99.90;;;;;;5067850;28;20211;-67
2023/09/02 03:51:37;;;;;;;8.57;7.77;;;14.20;99.90;;;;;;5067780;28;20211;-67
2023/09/02 03:54:05;;;;;;;9.47;8.47;;;14.20;99.90;;;;;;5067948;28;20217;-67
2023/09/02 03:56:36;;;;;;;8.73;7.83;;;14.20;99.90;;;;;;5071983;28;20203;-66
2023/09/02 03:59:06;;;;;;;8.57;7.77;;;14.10;99.90;;;;;;5067632;28;20709;-66
2023/09/02 04:01:34;;;;;;;8.33;7.53;;;14.10;99.90;;;;;;5067111;28;20250;-67
2023/09/02 04:04:01;;;;;;;8.80;7.93;;;14.10;99.90;;;;;;5067608;28;20214;-67
2023/09/02 04:06:29;;;;;;;9.43;7.90;;;14.10;99.90;;;;;;5070924;28;20728;-66
2023/09/02 04:08:56;;;;;;;7.90;7.20;;;14.10;99.90;;;;;;5086937;28;20207;-67
2023/09/02 04:11:23;;;;;;;7.40;6.80;;;14.10;99.90;;;;;;5087379;28;20218;-66
2023/09/02 04:13:50;;;;;;;8.77;7.90;;;14.10;99.90;;;;;;5087336;28;20226;-66
2023/09/02 04:16:19;;;;;;;8.03;7.33;;;14.10;99.90;;;;;;5087333;28;20234;-66
2023/09/02 04:18:46;;;;;;;8.83;7.40;;;14.10;99.90;;;;;;5085986;28;20234;-66
2023/09/02 04:21:13;;;;;;;8.10;7.30;;;14.00;99.90;;;;;;5086854;28;20840;-67
2023/09/02 04:23:41;;;;;;;8.37;7.57;;;14.00;99.90;;;;;;5083216;28;20674;-66
2023/09/02 04:26:09;;;;;;;7.37;6.77;;;14.00;99.90;;;;;;5067275;28;20212;-66
2023/09/02 04:28:36;;;;;;;8.37;7.40;;;14.00;99.90;;;;;;5066607;28;20644;-66
2023/09/02 04:31:03;;;;;;;7.77;7.10;;;14.00;99.90;;;;;;5066609;28;20290;-66
2023/09/02 04:33:32;;;;;;;7.43;6.73;;;14.00;99.90;;;;;;5067245;28;20937;-66
2023/09/02 04:36:01;;;;;;;7.50;6.90;;;14.00;99.90;;;;;;5066544;28;20219;-66
2023/09/02 04:38:31;;;;;;;7.53;6.93;;;14.00;99.90;;;;;;5066397;28;20234;-67
2023/09/02 04:41:03;;;;;;;7.43;6.67;;;13.90;99.90;;;;;;5078350;28;20716;-67
2023/09/02 04:43:30;;;;;;;7.27;6.67;;;13.90;99.90;;;;;;5086165;28;20203;-67
2023/09/02 04:46:02;;;;;;;7.20;6.60;;;13.90;99.90;;;;;;5086427;28;20211;-66
2023/09/02 04:48:29;;;;;;;7.07;6.47;;;13.90;99.90;;;;;;5105120;28;20198;-66
2023/09/02 04:50:59;;;;;;;7.17;6.37;;;13.90;99.90;;;;;;5086551;28;20653;-66
2023/09/02 04:53:26;;;;;;;7.30;6.60;;;13.90;99.90;;;;;;5070053;28;20203;-66
2023/09/02 04:55:54;;;;;;;6.80;6.30;;;13.90;99.90;;;;;;5066122;28;20219;-66
2023/09/02 04:58:22;;;;;;;7.20;6.70;;;13.90;99.90;;;;;;5065846;28;20322;-66
2023/09/02 05:00:50;;;;;;;8.00;7.40;;;13.90;99.90;;;;;;5065925;28;20262;-66
2023/09/02 05:03:17;;;;;;;7.37;6.80;;;14.00;99.90;;;;;;5077605;28;20587;-67
2023/09/02 05:05:45;;;;;;;8.33;7.63;;;14.00;99.90;;;;;;5085991;28;20565;-66
2023/09/02 05:08:14;;;;;;;9.03;6.93;;;14.00;99.90;;;;;;5085387;28;20326;-67
2023/09/02 05:10:41;;;;;;;7.33;6.73;;;14.00;99.90;;;;;;5086297;28;20614;-67
2023/09/02 05:13:08;;;;;;;7.73;7.13;;;14.00;99.90;;;;;;5086010;28;20206;-67
2023/09/02 05:15:36;;;;;;;7.60;7.00;;;14.00;99.90;;;;;;5085990;28;20901;-67
2023/09/02 05:18:04;;;;;;;7.63;7.13;;;14.00;99.90;;;;;;5070805;28;20645;-67
2023/09/02 05:20:31;;;;;;;7.33;6.63;;;14.00;99.90;;;;;;5066294;28;20265;-67
2023/09/02 05:22:58;;;;;;;7.40;6.53;;;14.00;99.90;;;;;;5065297;28;20203;-67
2023/09/02 05:25:29;;;;;;;7.17;6.57;;;14.10;99.90;;;;;;5065901;28;20262;-67
2023/09/02 05:27:56;;;;;;;8.20;7.33;;;14.10;99.90;;;;;;5066081;28;20204;-67
2023/09/02 05:30:23;;;;;;;7.73;7.03;;;14.10;99.90;;;;;;5065696;28;20576;-67
2023/09/02 05:32:50;;;;;;;8.87;7.97;;;14.10;99.90;;;;;;5080555;28;20210;-67
2023/09/02 05:35:17;;;;;;;7.30;6.70;;;14.10;99.90;;;;;;5085544;28;20759;-67
2023/09/02 05:37:44;;;;;;;7.30;6.77;;;14.20;99.90;;;;;;5069378;28;20216;-67
2023/09/02 05:40:12;;;;;;;8.30;7.60;;;14.30;99.90;;;;;;5065643;28;20207;-67
2023/09/02 05:42:41;;;;;;;7.90;7.10;;;14.30;99.90;;;;;;5072251;28;20852;-66
2023/09/02 05:45:08;;;;;;;8.20;7.40;;;14.40;99.90;;;;;;5080945;28;20625;-65
2023/09/02 05:47:36;;;;;;;8.83;8.03;;;14.50;99.90;;;;;;5096260;28;20664;-65
2023/09/02 05:50:03;;;;;;;7.90;7.30;;;14.50;99.90;;;;;;5091074;28;20237;-65
2023/09/02 05:52:30;;;;;;;9.57;7.53;;;14.60;99.90;;;;;;5064795;28;20203;-65
2023/09/02 05:54:57;;;;;;;7.93;7.23;;;14.60;99.90;;;;;;5065290;28;20229;-65
2023/09/02 05:57:24;;;;;;;8.63;7.07;;;14.70;99.90;;;;;;5064868;28;20213;-65
2023/09/02 05:59:53;;;;;;;8.17;7.40;;;14.80;99.90;;;;;;5064264;28;20281;-65
2023/09/02 06:02:20;;;;;;;7.97;7.23;;;14.80;99.90;;;;;;5076265;28;20213;-66
2023/09/02 06:04:47;;;;;;;8.33;7.67;;;14.80;99.90;;;;;;5085198;28;20246;-66
2023/09/02 06:07:14;;;;;;;10.20;8.77;;;14.80;99.90;;;;;;5084183;28;20676;-66
2023/09/02 06:09:42;;;;;;;8.40;7.53;;;14.80;99.90;;;;;;5084508;28;20645;-66
2023/09/02 06:12:10;;;;;;;7.77;7.00;;;14.80;99.90;;;;;;5085005;28;20207;-66
2023/09/02 06:14:37;;;;;;;7.60;6.80;;;14.90;99.90;;;;;;5085066;28;20713;-66
2023/09/02 06:17:05;;;;;;;8.23;7.43;;;14.90;99.90;;;;;;5091702;28;20221;-66
2023/09/02 06:19:33;;;;;;;7.83;7.03;;;14.90;99.90;;;;;;5099833;28;20228;-66
2023/09/02 06:22:00;;;;;;;7.57;6.93;;;14.80;99.90;;;;;;5085033;28;20207;-66
2023/09/02 06:24:28;;;;;;;7.17;6.17;;;14.90;99.90;;;;;;5084618;28;20359;-66
2023/09/02 06:27:03;;;;;;;7.73;7.03;;;14.90;99.90;;;;;;5085018;28;20747;-66
2023/09/02 06:29:31;;;;;;;7.50;6.90;;;15.00;99.90;;;;;;5065548;28;20320;-66
2023/09/02 06:31:58;;;;;;;8.97;7.10;;;15.00;99.90;;;;;;5065034;28;20291;-67
2023/09/02 06:34:29;;;;;;;7.60;7.00;;;15.10;99.90;;;;;;5064525;28;20216;-66
2023/09/02 06:36:56;;;;;;;8.00;7.03;;;15.10;99.90;;;;;;5064941;28;20222;-66
2023/09/02 06:39:24;;;;;;;6.80;6.17;;;15.20;99.90;;;;;;5075048;28;20330;-66
2023/09/02 06:41:51;;;;;;;6.57;6.07;;;15.20;99.90;;;;;;5084628;28;20210;-66
2023/09/02 06:44:18;;;;;;;7.50;6.80;;;15.30;99.90;;;;;;5073185;28;20238;-66
2023/09/02 06:46:45;;;;;;;7.90;7.10;;;15.40;99.90;;;;;;5073446;28;20237;-66
2023/09/02 06:49:12;;;;;;;8.10;6.57;;;15.40;99.90;;;;;;5078802;28;20215;-67
2023/09/02 06:51:41;;;;;;;10.27;6.13;;;15.40;99.90;;;;;;5084386;28;20975;-66
2023/09/02 06:54:08;;;;;;;7.73;6.00;;;15.50;99.90;;;;;;5084835;28;20504;-66
2023/09/02 06:56:35;;;;;;;7.47;6.77;;;15.50;99.90;;;;;;5084745;28;20226;-66
2023/09/02 06:59:03;;;;;;;7.00;6.40;;;15.50;99.90;;;;;;5084180;28;20230;-66
2023/09/02 07:01:30;;;;;;;6.77;5.93;;;15.60;99.90;;;;;;5084142;28;20245;-66
2023/09/02 07:03:57;;;;;;;9.60;6.60;;;15.60;99.90;;;;;;5084215;28;20211;-66
2023/09/02 07:06:24;;;;;;;8.03;6.90;;;15.60;99.90;;;;;;5084338;28;20214;-66
2023/09/02 07:08:53;;;;;;;8.60;6.87;;;15.70;99.90;;;;;;5083580;28;20234;-66
2023/09/02 07:11:20;;;;;;;6.70;6.10;;;15.70;99.90;;;;;;5084112;28;20211;-66
2023/09/02 07:13:49;;;;;;;6.10;5.60;;;15.80;99.90;;;;;;5069777;28;20241;-67
2023/09/02 07:16:17;;;;;;;6.33;5.73;;;15.80;99.90;;;;;;5068285;28;20207;-68
2023/09/02 07:18:44;;;;;;;6.67;5.43;;;15.80;99.90;;;;;;5067874;28;20227;-67
2023/09/02 07:21:12;;;;;;;7.43;6.53;;;15.90;99.90;;;;;;5067676;28;20218;-66
2023/09/02 07:23:40;;;;;;;6.27;5.07;;;15.90;99.90;;;;;;5067507;28;20212;-66
2023/09/02 07:26:09;;;;;;;6.00;5.37;;;16.00;99.90;;;;;;5068209;28;20306;-67
2023/09/02 07:28:37;;;;;;;6.33;5.17;;;16.00;99.90;;;;;;5070487;28;20242;-67
2023/09/02 07:31:05;;;;;;;5.73;4.60;;;16.10;99.90;;;;;;5088141;28;20334;-67
2023/09/02 07:33:32;;;;;;;5.80;5.40;;;16.10;99.90;;;;;;5087207;28;20240;-67
2023/09/02 07:36:00;;;;;;;5.90;5.30;;;16.20;99.90;;;;;;5074472;28;20213;-67
2023/09/02 07:38:27;;;;;;;7.13;5.83;;;16.30;99.90;;;;;;5067726;28;20211;-68
2023/09/02 07:40:54;;;;;;;7.63;6.00;;;16.40;99.90;;;;;;5067115;28;20753;-67
2023/09/02 07:43:23;;;;;;;5.17;4.77;;;16.40;99.90;;;;;;5079105;28;20228;-67
2023/09/02 07:45:50;;;;;;;5.90;4.87;;;16.50;99.90;;;;;;5087337;28;20298;-67
2023/09/02 07:48:17;;;;;;;5.67;5.27;;;16.50;99.90;;;;;;5104078;28;20210;-67
2023/09/02 07:50:45;;;;;;;6.10;5.50;;;16.60;99.90;;;;;;5102464;28;20990;-67
2023/09/02 07:53:12;;;;;;;6.23;5.60;;;16.70;99.90;;;;;;5086217;28;20207;-67
2023/09/02 07:55:39;;;;;;;6.30;5.70;;;16.80;99.90;;;;;;5070088;28;20214;-67
2023/09/02 07:58:07;;;;;;;5.40;4.90;;;16.90;99.90;;;;;;5086412;28;20211;-67
2023/09/02 08:00:37;;;;;;;8.90;6.10;;;16.90;99.90;;;;;;5085994;28;20282;-67
2023/09/02 08:03:05;;;;;;;6.20;5.70;;;17.00;99.90;;;;;;5070268;28;20298;-66
2023/09/02 08:05:32;;;;;;;6.03;5.20;;;17.10;99.90;;;;;;5065894;28;20696;-66
2023/09/02 08:07:59;;;;;;;5.20;4.70;;;17.20;99.90;;;;;;5065541;28;20746;-67
2023/09/02 08:10:27;;;;;;;6.93;4.90;;;17.20;99.90;;;;;;5083583;28;20736;-66
2023/09/02 08:12:54;;;;;;;5.00;4.50;;;17.40;99.90;;;;;;5086106;28;20697;-66
2023/09/02 08:15:22;;;;;;;4.90;4.50;;;17.40;99.90;;;;;;5086157;28;20209;-67
2023/09/02 08:17:50;;;;;;;4.60;4.17;;;17.40;99.90;;;;;;5098412;28;20221;-66
2023/09/02 08:20:18;;;;;;;4.23;3.50;;;17.50;99.90;;;;;;5096262;28;20249;-67
2023/09/02 08:22:45;;;;;;;4.57;4.07;;;17.60;99.90;;;;;;5085788;28;20211;-67
2023/09/02 08:25:12;;;;;;;4.23;3.83;;;17.60;99.90;;;;;;5080536;28;20229;-67
2023/09/02 08:27:39;;;;;;;7.03;4.03;;;17.70;99.90;;;;;;5067135;28;20211;-67
2023/09/02 08:30:07;;;;;;;4.03;3.43;;;17.80;99.90;;;;;;5083345;28;20686;-67
2023/09/02 08:32:34;;;;;;;4.33;2.83;;;17.90;99.90;;;;;;5068403;28;20199;-67
2023/09/02 08:35:03;;;;;;;4.60;2.80;;;17.80;99.90;;;;;;5065537;28;20328;-67
2023/09/02 08:37:31;;;;;;;3.70;3.00;;;17.90;99.90;;;;;;5065118;28;20650;-67
2023/09/02 08:39:59;;;;;;;4.53;2.93;;;17.90;99.90;;;;;;5069174;28;20296;-67
2023/09/02 08:42:27;;;;;;;3.97;2.93;;;18.00;99.90;;;;;;5070259;28;20662;-68
2023/09/02 08:44:56;;;;;;;3.17;2.90;;;18.10;99.90;;;;;;5085568;28;20210;-67
2023/09/02 08:47:27;;;;;;;3.50;2.93;;;18.20;99.90;;;;;;5095216;28;20305;-67
2023/09/02 08:49:56;;;;;;;2.93;2.50;;;18.40;99.90;;;;;;5081250;28;20239;-68
2023/09/02 08:52:29;;;;;;;3.00;2.70;;;18.50;99.90;;;;;;5065059;28;20220;-68
2023/09/02 08:54:57;;;;;;;6.13;3.30;;;18.50;99.90;;;;;;5065323;28;20310;-68
2023/09/02 08:57:25;;;;;;;4.27;2.90;;;18.60;99.90;;;;;;5065028;28;20281;-68
2023/09/02 08:59:52;;;;;;;5.83;2.70;;;18.70;99.90;;;;;;5064910;28;20238;-68
2023/09/02 09:02:21;;;;;;;6.03;2.53;;;18.80;99.90;;;;;;5065192;28;20216;-67
2023/09/02 09:04:52;;;;;;;3.27;2.60;;;18.70;99.90;;;;;;5069247;28;20210;-67
2023/09/02 09:07:20;;;;;;;3.27;2.77;;;18.80;99.90;;;;;;5077508;28;20212;-66
2023/09/02 09:09:50;;;;;;;3.73;2.90;;;18.80;99.90;;;;;;5078996;28;20308;-66
2023/09/02 09:12:18;;;;;;;2.67;2.27;;;18.80;99.90;;;;;;5064746;28;20215;-66
2023/09/02 09:14:48;;;;;;;5.87;2.70;;;18.90;99.90;;;;;;5064501;28;20238;-67
2023/09/02 09:17:17;;;;;;;2.97;2.67;;;19.10;99.90;;;;;;5081158;28;20274;-67
2023/09/02 09:19:45;;;;;;;6.53;2.87;;;19.20;99.90;;;;;;5088838;28;20230;-67
2023/09/02 09:22:13;;;;;;;6.13;3.07;;;19.30;99.90;;;;;;5072936;28;20359;-67
2023/09/02 09:24:40;;;;;;;3.20;2.63;;;19.50;99.90;;;;;;5064669;28;20207;-67
2023/09/02 09:27:10;;;;;;;4.27;2.77;;;19.60;99.90;;;;;;5064824;28;20212;-67
2023/09/02 09:29:42;;;;;;;5.50;2.97;;;19.60;99.90;;;;;;5064937;28;20853;-66
2023/09/02 09:32:10;;;;;;;4.13;3.10;;;19.80;99.90;;;;;;5065035;28;20241;-67
2023/09/02 09:34:42;;;;;;;4.37;2.87;;;19.80;99.90;;;;;;5070202;28;20203;-67
2023/09/02 09:37:10;;;;;;;2.97;2.63;;;19.90;99.90;;;;;;5083490;28;20234;-67
2023/09/02 09:39:42;;;;;;;4.60;2.90;;;20.10;99.90;;;;;;5078928;28;20313;-67
2023/09/02 09:42:13;;;;;;;3.00;2.60;;;20.20;99.90;;;;;;5066859;28;20242;-67
2023/09/02 09:44:55;;;;;;;2.73;2.37;;;20.20;99.90;;;;;;5064505;28;20298;-67
2023/09/02 09:47:22;;;;;;;4.00;2.67;;;20.30;99.90;;;;;;5082126;28;20262;-67
2023/09/02 09:49:50;;;;;;;3.70;2.67;;;20.40;99.90;;;;;;5104419;28;20249;-67
2023/09/02 09:52:19;;;;;;;4.03;2.30;;;20.40;99.90;;;;;;5099273;28;20306;-66
2023/09/02 09:54:48;;;;;;;5.30;2.53;;;20.40;99.90;;;;;;5064264;28;20221;-66
2023/09/02 09:57:29;;;;;;;6.27;3.20;;;20.40;99.90;;;;;;5064003;28;20994;-66
2023/09/02 09:59:58;;;;;;;5.38;2.60;;;20.50;99.90;;;;;;5064424;28;20330;-66
2023/09/02 10:02:25;;;;;;;3.77;2.80;;;20.60;99.90;;;;;;5077571;28;20202;-66
2023/09/02 10:04:53;;;;;;;4.50;2.73;;;20.50;99.90;;;;;;5074129;28;20286;-66
2023/09/02 10:07:24;;;;;;;5.13;2.80;;;20.50;99.90;;;;;;5064927;28;20277;-66
2023/09/02 10:09:53;;;;;;;4.47;2.53;;;20.30;99.90;;;;;;5064358;28;20195;-66
2023/09/02 10:12:22;;;;;;;5.13;2.53;;;20.20;99.90;;;;;;5064321;28;20302;-66
2023/09/02 10:14:50;;;;;;;3.30;2.67;;;20.20;99.90;;;;;;5064384;28;20728;-66
2023/09/02 10:17:18;;;;;;;3.63;2.70;;;20.10;99.90;;;;;;5081119;28;20305;-66
2023/09/02 10:19:46;;;;;;;2.50;2.30;;;20.00;99.90;;;;;;5084678;28;20315;-66
2023/09/02 10:22:18;;;;;;;4.13;2.73;;;19.90;99.90;;;;;;5084897;28;20293;-66
2023/09/02 10:24:51;;;;;;;4.07;2.30;;;20.00;99.90;;;;;;5084904;28;20675;-67
2023/09/02 10:27:20;;;;;;;3.67;2.60;;;20.00;99.90;;;;;;5073056;28;20200;-66
2023/09/02 10:29:55;;;;;;;2.87;2.57;;;20.00;99.90;;;;;;5069916;28;20646;-66
2023/09/02 10:32:25;;;;;;;4.13;2.30;;;20.10;99.90;;;;;;5078521;28;20232;-66
2023/09/02 10:34:57;;;;;;;2.43;2.23;;;20.10;99.90;;;;;;5084582;28;20213;-66
2023/09/02 10:37:29;;;;;;;3.80;1.90;;;20.20;99.90;;;;;;5083981;28;20294;-67
2023/09/02 10:40:04;;;;;;;2.58;1.95;;;20.30;99.90;;;;;;5084699;28;20246;-66
2023/09/02 10:42:31;;;;;;;4.23;2.10;;;20.20;99.90;;;;;;5084859;28;20201;-66
2023/09/02 10:45:01;;;;;;;3.50;2.13;;;20.20;99.90;;;;;;5084810;28;20689;-66
2023/09/02 10:47:28;;;;;;;2.00;1.80;;;20.20;99.90;;;;;;5094643;28;20729;-66
2023/09/02 10:49:55;;;;;;;3.30;1.93;;;20.10;99.90;;;;;;5090171;28;20289;-66
2023/09/02 10:52:22;;;;;;;2.50;2.00;;;20.20;99.90;;;;;;5088605;28;20741;-66
2023/09/02 10:55:03;;;;;;;4.67;2.30;;;20.20;99.90;;;;;;5088836;28;20207;-66
2023/09/02 10:57:31;;;;;;;3.60;2.20;;;20.20;99.90;;;;;;5088426;28;20653;-66
2023/09/02 11:00:16;;;;;;;2.40;2.20;;;20.30;99.90;;;;;;5087726;28;20883;-67
2023/09/02 11:02:44;;;;;;;2.33;1.90;;;20.30;99.90;;;;;;5068505;28;20647;-66
2023/09/02 11:05:11;;;;;;;2.47;2.27;;;20.50;99.90;;;;;;5068195;28;20218;-67
2023/09/02 11:07:39;;;;;;;2.90;2.10;;;20.80;99.90;;;;;;5068114;28;20257;-67
2023/09/02 11:10:08;;;;;;;5.03;2.77;;;21.10;99.90;;;;;;5068339;28;20229;-66
2023/09/02 11:12:35;;;;;;;3.30;2.30;;;21.30;99.90;;;;;;5068056;28;20670;-67
2023/09/02 11:15:18;;;;;;;3.28;2.33;;;21.40;99.90;;;;;;5070177;28;20729;-66
2023/09/02 11:17:45;;;;;;;2.50;2.23;;;21.80;99.90;;;;;;5092773;28;20302;-67
2023/09/02 11:20:13;;;;;;;2.93;2.10;;;22.00;99.90;;;;;;5101615;28;20321;-67
2023/09/02 11:22:55;;;;;;;2.58;1.80;;;22.20;99.90;;;;;;5068244;28;20207;-67
2023/09/02 11:25:34;;;;;;;4.55;2.47;;;22.30;99.90;;;;;;5078608;28;20226;-67
2023/09/02 11:28:02;;;;;;;3.15;2.30;;;22.40;99.90;;;;;;5079014;28;20217;-67
2023/09/02 11:30:31;;;;;;;2.60;1.90;;;22.50;99.90;;;;;;5067562;28;20309;-66
2023/09/02 11:32:59;;;;;;;2.60;2.08;;;22.50;99.90;;;;;;5067902;28;20216;-67
2023/09/02 11:35:29;;;;;;;3.92;2.25;;;22.70;99.90;;;;;;5067846;28;20231;-67
2023/09/02 11:37:56;;;;;;;5.93;2.80;;;22.80;99.90;;;;;;5068244;28;20282;-67
2023/09/02 11:40:25;;;;;;;3.55;2.13;;;22.80;99.90;;;;;;5083491;28;20348;-67
2023/09/02 11:42:54;;;;;;;2.67;1.77;;;22.60;99.90;;;;;;5087679;28;20661;-67
2023/09/02 11:45:22;;;;;;;2.10;1.98;;;22.30;99.90;;;;;;5078302;28;20290;-67
2023/09/02 11:47:52;;;;;;;2.28;2.08;;;22.10;99.90;;;;;;5067528;28;20265;-66
2023/09/02 11:50:22;;;;;;;1.98;1.88;;;22.00;99.90;;;;;;5084839;28;20203;-67
2023/09/02 11:52:52;;;;;;;2.20;2.00;;;21.80;99.90;;;;;;5087347;28;20294;-66
2023/09/02 11:55:19;;;;;;;2.75;2.30;;;21.60;99.90;;;;;;5087842;28;20215;-66
2023/09/02 11:57:47;;;;;;;2.65;2.25;;;21.50;99.90;;;;;;5087145;28;20214;-67
2023/09/02 12:00:18;;;;;;;2.28;2.08;;;21.30;99.90;;;;;;5084815;28;20265;-66
2023/09/02 12:02:46;;;;;;;2.87;2.40;;;21.30;99.90;;;;;;5085583;28;20285;-67
2023/09/02 12:05:15;;;;;;;2.70;2.17;;;21.10;99.90;;;;;;5072578;28;20281;-66
2023/09/02 12:07:44;;;;;;;4.18;2.58;;;21.00;99.90;;;;;;5067004;28;20979;-66
2023/09/02 12:10:13;;;;;;;3.67;2.40;;;20.90;99.90;;;;;;5066811;28;20261;-67
2023/09/02 12:12:41;;;;;;;2.60;2.40;;;20.80;99.90;;;;;;5069440;28;20241;-67
2023/09/02 12:15:12;;;;;;;2.40;2.17;;;20.80;99.90;;;;;;5067496;28;20203;-66
2023/09/02 12:17:40;;;;;;;2.30;2.10;;;20.70;99.90;;;;;;5095685;28;20204;-66
2023/09/02 12:20:09;;;;;;;2.63;2.03;;;20.70;99.90;;;;;;5107652;28;20700;-66
2023/09/02 12:22:37;;;;;;;2.93;2.53;;;20.70;99.90;;;;;;5107312;28;20289;-66
2023/09/02 12:25:15;;;;;;;3.97;2.47;;;20.60;99.90;;;;;;5087627;28;20852;-66
2023/09/02 12:27:41;;;;;;;3.73;2.37;;;20.60;99.90;;;;;;5087077;28;20199;-66
2023/09/02 12:30:09;;;;;;;3.30;2.40;;;20.60;99.90;;;;;;5085089;28;20214;-66
2023/09/02 12:32:36;;;;;;;3.13;2.50;;;20.60;99.90;;;;;;5066886;28;20262;-67
2023/09/02 12:35:08;;;;;;;3.67;2.43;;;20.50;99.90;;;;;;5069635;28;20277;-67
2023/09/02 12:37:36;;;;;;;9.07;3.03;;;20.50;99.90;;;;;;5086269;28;20218;-66
2023/09/02 12:40:11;;;;;;;3.53;2.43;;;20.50;99.90;;;;;;5071638;28;20206;-67
2023/09/02 12:42:39;;;;;;;5.73;5.23;;;20.50;99.90;;;;;;5066735;28;20307;-67
2023/09/02 12:45:09;;;;;;;4.60;4.20;;;20.50;99.90;;;;;;5071275;28;20658;-66
2023/09/02 12:47:37;;;;;;;4.00;2.70;;;20.50;99.90;;;;;;5066416;28;20238;-66
2023/09/02 12:50:05;;;;;;;2.83;2.30;;;20.40;99.90;;;;;;5070547;28;20217;-66
2023/09/02 12:52:33;;;;;;;4.27;2.83;;;20.40;99.90;;;;;;5086178;28;20207;-66